createdAt,value
2018-07-27T00:00:09.110Z,24.80
2018-07-27T00:02:36.301Z,24.90
2018-07-27T00:05:03.734Z,24.90
2018-07-27T00:07:30.957Z,24.80
2018-07-27T00:12:25.349Z,24.70
2018-07-27T00:14:52.538Z,24.60
2018-07-27T00:17:19.713Z,24.70
2018-07-27T00:19:46.921Z,24.60
2018-07-27T00:22:14.204Z,24.60
2018-07-27T00:24:41.385Z,24.50
2018-07-27T00:27:08.565Z,24.60
2018-07-27T00:29:35.750Z,24.60
2018-07-27T00:32:02.958Z,24.50
2018-07-27T00:34:30.150Z,24.50
2018-07-27T00:36:57.342Z,24.50
2018-07-27T00:39:24.517Z,24.40
2018-07-27T00:41:51.721Z,24.30
2018-07-27T00:44:18.890Z,24.30
2018-07-27T00:46:46.053Z,24.30
2018-07-27T00:49:13.225Z,24.30
2018-07-27T00:51:40.448Z,24.30
2018-07-27T00:54:07.621Z,24.30
2018-07-27T00:56:34.813Z,24.30
2018-07-27T00:59:02.006Z,24.40
2018-07-27T01:01:29.202Z,24.30
2018-07-27T01:03:56.381Z,24.40
2018-07-27T01:06:23.605Z,24.30
2018-07-27T01:08:50.801Z,24.20
2018-07-27T01:11:18.022Z,24.20
2018-07-27T01:13:45.201Z,24.20
2018-07-27T01:16:12.390Z,24.20
2018-07-27T01:18:39.561Z,24.10
2018-07-27T01:21:06.781Z,24.10
2018-07-27T01:23:33.961Z,24.10
2018-07-27T01:26:01.231Z,24.10
2018-07-27T01:28:28.422Z,24.10
2018-07-27T01:30:55.637Z,24.10
2018-07-27T01:33:22.803Z,24.20
2018-07-27T01:35:49.981Z,24.20
2018-07-27T01:38:17.257Z,24.30
2018-07-27T01:40:44.441Z,24.30
2018-07-27T01:43:11.609Z,24.40
2018-07-27T01:45:38.778Z,24.20
2018-07-27T01:48:06.005Z,24.10
2018-07-27T01:50:33.221Z,24.10
2018-07-27T01:53:00.393Z,24.00
2018-07-27T01:55:27.584Z,24.10
2018-07-27T01:57:54.811Z,24.10
2018-07-27T02:00:22.040Z,24.00
2018-07-27T02:02:49.213Z,24.00
2018-07-27T02:05:16.397Z,23.90
2018-07-27T02:07:43.562Z,23.80
2018-07-27T02:10:10.749Z,23.90
2018-07-27T02:12:38.169Z,23.80
2018-07-27T02:15:06.233Z,23.80
2018-07-27T02:17:33.401Z,23.90
2018-07-27T02:22:51.249Z,23.50
2018-07-27T02:25:18.893Z,23.40
2018-07-27T02:27:46.384Z,23.40
2018-07-27T02:30:14.308Z,23.40
2018-07-27T02:32:42.499Z,23.30
2018-07-27T02:35:09.676Z,23.20
2018-07-27T02:37:36.840Z,23.20
2018-07-27T02:40:04.252Z,23.20
2018-07-27T02:42:31.381Z,23.40
2018-07-27T02:44:58.594Z,23.40
2018-07-27T02:47:25.785Z,23.20
2018-07-27T02:49:52.973Z,23.20
2018-07-27T02:52:20.169Z,23.10
2018-07-27T02:54:47.345Z,23.00
2018-07-27T02:57:14.513Z,22.90
2018-07-27T02:59:41.703Z,22.90
2018-07-27T03:02:08.921Z,22.90
2018-07-27T03:04:36.089Z,23.00
2018-07-27T03:07:03.349Z,23.10
2018-07-27T03:09:30.496Z,23.00
2018-07-27T03:11:57.700Z,23.10
2018-07-27T03:14:24.972Z,23.10
2018-07-27T03:16:52.158Z,23.00
2018-07-27T03:19:19.312Z,23.10
2018-07-27T03:21:46.517Z,22.90
2018-07-27T03:24:13.729Z,22.80
2018-07-27T03:26:41.034Z,22.80
2018-07-27T03:29:08.237Z,22.70
2018-07-27T03:31:35.400Z,22.60
2018-07-27T03:34:02.583Z,22.70
2018-07-27T03:36:29.768Z,22.60
2018-07-27T03:38:56.934Z,22.50
2018-07-27T03:41:24.146Z,22.40
2018-07-27T03:43:52.096Z,22.30
2018-07-27T03:46:19.277Z,22.30
2018-07-27T03:48:46.447Z,22.30
2018-07-27T03:51:13.652Z,22.40
2018-07-27T03:53:40.824Z,22.40
2018-07-27T03:56:08.001Z,22.30
2018-07-27T03:58:35.197Z,22.30
2018-07-27T04:01:02.356Z,22.30
2018-07-27T04:03:29.551Z,22.30
2018-07-27T04:05:56.716Z,22.30
2018-07-27T04:08:23.901Z,22.30
2018-07-27T04:10:51.060Z,22.30
2018-07-27T04:13:18.521Z,22.20
2018-07-27T04:15:45.701Z,22.20
2018-07-27T04:20:40.037Z,22.60
2018-07-27T04:23:07.243Z,22.50
2018-07-27T04:25:34.461Z,22.50
2018-07-27T04:28:01.744Z,22.30
2018-07-27T04:30:28.918Z,22.20
2018-07-27T04:32:56.154Z,22.20
2018-07-27T04:35:23.290Z,22.20
2018-07-27T04:37:50.628Z,22.20
2018-07-27T04:40:17.917Z,22.20
2018-07-27T04:42:45.113Z,22.20
2018-07-27T04:45:12.381Z,22.30
2018-07-27T04:47:39.546Z,22.60
2018-07-27T04:50:07.193Z,22.80
2018-07-27T04:52:34.374Z,22.90
2018-07-27T04:57:28.756Z,22.90
2018-07-27T04:59:55.953Z,22.90
2018-07-27T05:02:23.117Z,23.00
2018-07-27T05:04:50.333Z,22.90
2018-07-27T05:07:17.543Z,22.80
2018-07-27T05:09:44.707Z,22.60
2018-07-27T05:12:11.973Z,22.50
2018-07-27T05:14:39.166Z,22.40
2018-07-27T05:17:06.329Z,22.40
2018-07-27T05:19:33.500Z,22.50
2018-07-27T05:22:00.665Z,22.70
2018-07-27T05:24:27.854Z,22.80
2018-07-27T05:26:55.084Z,23.00
2018-07-27T05:29:22.265Z,23.10
2018-07-27T05:31:49.436Z,23.10
2018-07-27T05:34:16.656Z,23.00
2018-07-27T05:36:43.869Z,22.80
2018-07-27T05:39:11.893Z,22.80
2018-07-27T05:41:39.067Z,22.70
2018-07-27T05:44:06.454Z,22.80
2018-07-27T05:46:33.652Z,22.80
2018-07-27T05:49:00.900Z,22.80
2018-07-27T05:51:28.120Z,22.90
2018-07-27T05:53:55.313Z,23.00
2018-07-27T05:56:22.550Z,23.00
2018-07-27T05:58:49.765Z,23.00
2018-07-27T06:01:17.058Z,23.20
2018-07-27T06:03:44.445Z,23.10
2018-07-27T06:06:11.731Z,23.20
2018-07-27T06:08:39.052Z,23.30
2018-07-27T06:11:06.654Z,23.30
2018-07-27T06:13:33.965Z,23.20
2018-07-27T06:16:01.243Z,23.30
2018-07-27T06:18:28.582Z,23.30
2018-07-27T06:20:55.883Z,23.50
2018-07-27T06:23:23.120Z,23.60
2018-07-27T06:28:17.980Z,23.60
2018-07-27T06:30:45.102Z,23.60
2018-07-27T06:33:12.345Z,23.70
2018-07-27T06:38:06.748Z,23.80
2018-07-27T06:40:33.997Z,23.90
2018-07-27T06:43:01.180Z,24.00
2018-07-27T06:45:28.389Z,24.10
2018-07-27T06:47:55.638Z,24.10
2018-07-27T06:50:22.821Z,24.10
2018-07-27T06:52:50.056Z,24.20
2018-07-27T06:55:17.252Z,24.30
2018-07-27T06:57:44.434Z,24.40
2018-07-27T07:00:11.641Z,24.40
2018-07-27T07:02:38.800Z,24.40
2018-07-27T07:05:06.004Z,24.40
2018-07-27T07:07:33.236Z,24.40
2018-07-27T07:10:00.397Z,24.50
2018-07-27T07:12:27.583Z,24.50
2018-07-27T07:14:54.741Z,24.50
2018-07-27T07:17:21.927Z,24.50
2018-07-27T07:19:49.905Z,24.70
2018-07-27T07:22:17.497Z,24.70
2018-07-27T07:24:45.357Z,24.80
2018-07-27T07:27:14.111Z,24.90
2018-07-27T07:29:42.362Z,25.00
2018-07-27T07:32:10.826Z,25.10
2018-07-27T07:34:38.817Z,25.30
2018-07-27T07:37:08.135Z,25.40
2018-07-27T07:39:36.244Z,25.50
2018-07-27T07:42:04.497Z,25.70
2018-07-27T07:44:32.883Z,25.90
2018-07-27T07:47:00.651Z,26.10
2018-07-27T07:49:29.042Z,26.40
2018-07-27T07:51:56.889Z,26.70
2018-07-27T07:54:24.615Z,27.00
2018-07-27T07:56:52.925Z,27.30
2018-07-27T07:59:20.333Z,27.50
2018-07-27T08:01:48.665Z,27.70
2018-07-27T08:06:44.302Z,28.10
2018-07-27T08:09:11.477Z,28.40
2018-07-27T08:11:38.637Z,28.50
2018-07-27T08:14:06.968Z,28.70
2018-07-27T08:16:34.330Z,28.70
2018-07-27T08:19:01.549Z,28.70
2018-07-27T08:21:29.852Z,28.80
2018-07-27T08:23:57.748Z,28.90
2018-07-27T08:26:51.042Z,28.90
2018-07-27T08:29:20.165Z,29.10
2018-07-27T08:31:49.172Z,29.30
2018-07-27T08:34:17.653Z,29.70
2018-07-27T08:36:46.034Z,29.70
2018-07-27T08:39:15.868Z,29.60
2018-07-27T08:41:44.949Z,29.60
2018-07-27T08:44:14.361Z,29.70
2018-07-27T08:46:42.110Z,29.80
2018-07-27T08:49:10.335Z,29.80
2018-07-27T08:51:38.456Z,29.80
2018-07-27T08:54:06.230Z,30.00
2018-07-27T08:56:33.421Z,30.20
2018-07-27T08:59:01.475Z,30.30
2018-07-27T09:01:29.417Z,30.30
2018-07-27T09:03:57.086Z,30.30
2018-07-27T09:06:26.591Z,30.50
2018-07-27T09:08:53.924Z,30.60
2018-07-27T09:11:21.460Z,30.80
2018-07-27T09:13:49.157Z,30.90
2018-07-27T09:16:16.336Z,30.90
2018-07-27T09:18:43.521Z,31.30
2018-07-27T09:21:11.288Z,31.50
2018-07-27T09:23:39.594Z,31.70
2018-07-27T09:26:07.780Z,31.80
2018-07-27T09:31:02.880Z,32.20
2018-07-27T09:33:31.342Z,32.40
2018-07-27T09:35:58.516Z,32.60
2018-07-27T09:38:25.694Z,32.90
2018-07-27T09:43:20.077Z,32.90
2018-07-27T09:45:47.282Z,32.90
2018-07-27T09:48:14.580Z,32.80
2018-07-27T09:50:42.968Z,33.10
2018-07-27T09:53:10.346Z,33.20
2018-07-27T09:55:37.523Z,33.60
2018-07-27T09:58:04.908Z,34.10
2018-07-27T10:00:37.916Z,35.00
2018-07-27T10:03:05.223Z,35.70
2018-07-27T10:05:32.401Z,36.60
2018-07-27T10:07:59.594Z,37.30
2018-07-27T10:10:26.773Z,38.00
2018-07-27T10:12:53.977Z,38.50
2018-07-27T10:15:21.101Z,38.90
2018-07-27T10:17:48.575Z,39.40
2018-07-27T10:20:15.741Z,39.60
2018-07-27T10:25:10.218Z,40.30
2018-07-27T10:27:37.395Z,40.20
2018-07-27T10:30:05.054Z,40.50
2018-07-27T10:34:59.398Z,41.10
2018-07-27T10:37:26.581Z,41.40
2018-07-27T10:39:53.728Z,41.60
2018-07-27T10:42:20.899Z,41.40
2018-07-27T10:44:48.119Z,41.20
2018-07-27T10:47:15.257Z,40.90
2018-07-27T10:49:42.437Z,40.90
2018-07-27T10:52:09.744Z,40.90
2018-07-27T10:54:36.904Z,40.90
2018-07-27T10:57:04.280Z,41.00
2018-07-27T10:59:31.669Z,41.00
2018-07-27T11:01:58.937Z,41.20
2018-07-27T11:04:26.116Z,41.30
2018-07-27T11:06:53.272Z,41.30
2018-07-27T11:09:20.469Z,41.20
2018-07-27T11:11:47.644Z,41.00
2018-07-27T11:14:14.870Z,41.10
2018-07-27T11:16:42.073Z,40.80
2018-07-27T11:19:09.233Z,39.20
2018-07-27T11:21:36.449Z,38.00
2018-07-27T11:24:03.648Z,36.90
2018-07-27T11:26:30.819Z,35.90
2018-07-27T11:28:58.000Z,35.70
2018-07-27T11:31:25.441Z,35.70
2018-07-27T11:33:52.626Z,35.30
2018-07-27T11:36:19.820Z,34.60
2018-07-27T11:38:47.023Z,34.30
2018-07-27T11:41:14.235Z,33.80
2018-07-27T11:43:41.406Z,33.20
2018-07-27T11:46:08.592Z,32.90
2018-07-27T11:48:35.752Z,32.80
2018-07-27T11:51:02.944Z,33.60
2018-07-27T11:53:30.132Z,34.80
2018-07-27T11:55:57.308Z,35.70
2018-07-27T11:58:25.194Z,36.60
2018-07-27T12:00:52.384Z,37.20
2018-07-27T12:03:19.534Z,37.80
2018-07-27T12:05:46.737Z,38.30
2018-07-27T12:10:41.264Z,37.00
2018-07-27T12:13:08.488Z,35.90
2018-07-27T12:15:35.662Z,35.40
2018-07-27T12:18:02.821Z,35.60
2018-07-27T12:20:30.123Z,35.60
2018-07-27T12:22:57.413Z,35.10
2018-07-27T12:25:24.587Z,34.80
2018-07-27T12:27:51.942Z,35.30
2018-07-27T12:32:46.273Z,36.30
2018-07-27T12:35:13.463Z,36.60
2018-07-27T12:37:40.645Z,36.90
2018-07-27T12:40:07.824Z,37.20
2018-07-27T12:42:35.035Z,37.50
2018-07-27T12:45:02.272Z,37.50
2018-07-27T12:47:29.427Z,37.60
2018-07-27T12:49:56.633Z,37.70
2018-07-27T12:52:23.817Z,37.30
2018-07-27T12:54:50.976Z,36.80
2018-07-27T12:57:18.156Z,36.50
2018-07-27T12:59:45.328Z,36.40
2018-07-27T13:02:12.516Z,36.60
2018-07-27T13:04:39.715Z,36.90
2018-07-27T13:09:34.146Z,36.70
2018-07-27T13:12:01.337Z,36.60
2018-07-27T13:14:28.510Z,36.50
2018-07-27T13:16:55.685Z,36.60
2018-07-27T13:19:22.870Z,36.40
2018-07-27T13:21:50.901Z,35.70
2018-07-27T13:24:18.078Z,34.90
2018-07-27T13:26:45.274Z,34.40
2018-07-27T13:29:12.573Z,33.90
2018-07-27T13:34:36.070Z,33.50
2018-07-27T13:37:03.615Z,33.70
2018-07-27T13:39:31.409Z,34.00
2018-07-27T13:41:59.876Z,34.20
2018-07-27T13:44:27.073Z,34.10
2018-07-27T13:46:54.521Z,33.90
2018-07-27T13:49:21.825Z,33.80
2018-07-27T13:51:49.029Z,33.60
2018-07-27T13:54:16.405Z,33.70
2018-07-27T13:56:44.261Z,34.00
2018-07-27T13:59:11.534Z,34.40
2018-07-27T14:01:38.780Z,34.70
2018-07-27T14:04:06.024Z,34.90
2018-07-27T14:06:33.683Z,35.10
2018-07-27T14:09:00.923Z,35.20
2018-07-27T14:11:28.184Z,35.00
2018-07-27T14:13:55.353Z,34.80
2018-07-27T14:16:22.611Z,34.50
2018-07-27T14:18:49.901Z,34.20
2018-07-27T14:21:17.085Z,34.20
2018-07-27T14:23:44.420Z,34.00
2018-07-27T14:26:11.623Z,33.70
2018-07-27T14:28:38.926Z,33.60
2018-07-27T14:31:06.225Z,33.70
2018-07-27T14:33:33.470Z,33.70
2018-07-27T14:38:27.894Z,33.90
2018-07-27T14:40:55.116Z,34.00
2018-07-27T14:43:22.294Z,34.00
2018-07-27T14:45:49.513Z,33.90
2018-07-27T14:48:16.731Z,33.80
2018-07-27T14:50:43.920Z,33.70
2018-07-27T14:55:38.407Z,33.40
2018-07-27T14:58:05.770Z,33.30
2018-07-27T15:00:33.037Z,33.30
2018-07-27T15:03:00.323Z,33.30
2018-07-27T15:05:27.785Z,33.20
2018-07-27T15:07:55.573Z,33.10
2018-07-27T15:10:22.748Z,33.20
2018-07-27T15:12:49.918Z,33.20
2018-07-27T15:15:17.189Z,33.20
2018-07-27T15:17:44.421Z,33.30
2018-07-27T15:20:11.865Z,33.30
2018-07-27T15:22:39.028Z,33.10
2018-07-27T15:25:06.297Z,33.10
2018-07-27T15:27:33.465Z,33.20
2018-07-27T15:30:00.665Z,33.40
2018-07-27T15:32:27.977Z,33.50
2018-07-27T15:34:55.377Z,33.40
2018-07-27T15:37:22.560Z,33.40
2018-07-27T15:39:49.820Z,33.30
2018-07-27T15:42:17.045Z,33.30
2018-07-27T15:47:11.462Z,33.10
2018-07-27T15:49:38.645Z,33.00
2018-07-27T15:52:05.842Z,33.00
2018-07-27T15:54:33.013Z,33.00
2018-07-27T15:57:00.195Z,32.90
2018-07-27T15:59:27.368Z,32.90
2018-07-27T16:01:54.564Z,32.80
2018-07-27T16:04:21.796Z,32.70
2018-07-27T16:06:48.984Z,32.70
2018-07-27T16:09:16.207Z,32.70
2018-07-27T16:11:43.404Z,32.70
2018-07-27T16:14:10.653Z,32.50
2018-07-27T16:16:37.837Z,32.40
2018-07-27T16:19:05.127Z,32.30
2018-07-27T16:21:32.309Z,32.30
2018-07-27T16:23:59.521Z,32.40
2018-07-27T16:26:26.700Z,32.40
2018-07-27T16:28:53.925Z,32.30
2018-07-27T16:31:21.093Z,32.30
2018-07-27T16:33:48.294Z,32.30
2018-07-27T16:36:15.585Z,32.30
2018-07-27T16:38:42.758Z,32.30
2018-07-27T16:41:10.029Z,32.20
2018-07-27T16:43:37.213Z,32.10
2018-07-27T16:46:04.418Z,32.10
2018-07-27T16:48:31.625Z,31.90
2018-07-27T16:50:59.140Z,31.90
2018-07-27T16:53:26.377Z,31.90
2018-07-27T16:55:59.417Z,31.80
2018-07-27T16:58:26.593Z,31.80
2018-07-27T17:03:21.046Z,31.90
2018-07-27T17:05:48.241Z,31.90
2018-07-27T17:08:15.412Z,31.80
2018-07-27T17:10:42.661Z,31.60
2018-07-27T17:13:09.854Z,31.50
2018-07-27T17:15:37.029Z,31.50
2018-07-27T17:18:04.325Z,31.50
2018-07-27T17:20:31.509Z,31.40
2018-07-27T17:22:58.723Z,31.30
2018-07-27T17:25:25.986Z,31.20
2018-07-27T17:27:53.153Z,31.00
2018-07-27T17:30:20.357Z,30.90
2018-07-27T17:35:14.768Z,30.80
2018-07-27T17:37:41.961Z,30.70
2018-07-27T17:40:09.349Z,30.60
2018-07-27T17:42:36.578Z,30.60
2018-07-27T17:45:05.182Z,30.50
2018-07-27T17:47:32.421Z,30.50
2018-07-27T17:49:59.637Z,30.50
2018-07-27T17:52:26.855Z,30.40
2018-07-27T17:54:54.035Z,30.40
2018-07-27T17:59:48.384Z,30.30
2018-07-27T18:02:15.549Z,30.20
2018-07-27T18:04:42.720Z,30.10
2018-07-27T18:07:10.457Z,30.00
2018-07-27T18:09:37.564Z,29.90
2018-07-27T18:12:05.154Z,29.90
2018-07-27T18:14:32.321Z,29.90
2018-07-27T18:19:26.723Z,29.90
2018-07-27T18:21:53.887Z,29.90
2018-07-27T18:24:21.125Z,29.90
2018-07-27T18:26:48.301Z,29.80
2018-07-27T18:29:15.549Z,29.90
2018-07-27T18:31:42.718Z,30.00
2018-07-27T18:34:09.895Z,30.10
2018-07-27T18:36:37.271Z,30.00
2018-07-27T18:39:06.881Z,29.90
2018-07-27T18:41:34.049Z,29.80
2018-07-27T18:44:01.242Z,29.70
2018-07-27T18:46:28.414Z,29.60
2018-07-27T18:48:55.609Z,29.40
2018-07-27T18:53:50.137Z,29.20
2018-07-27T18:56:17.308Z,29.10
2018-07-27T18:58:44.467Z,29.10
2018-07-27T19:01:11.701Z,29.10
2018-07-27T19:03:38.889Z,29.10
2018-07-27T19:06:06.190Z,29.00
2018-07-27T19:08:33.380Z,29.00
2018-07-27T19:11:00.536Z,28.80
2018-07-27T19:13:27.731Z,28.70
2018-07-27T19:15:55.013Z,28.70
2018-07-27T19:18:22.401Z,28.60
2018-07-27T19:20:49.769Z,28.50
2018-07-27T19:23:16.982Z,28.40
2018-07-27T19:25:44.141Z,28.30
2018-07-27T19:28:11.415Z,28.30
2018-07-27T19:30:38.621Z,28.20
2018-07-27T19:33:05.805Z,28.20
2018-07-27T19:35:33.010Z,28.20
2018-07-27T19:38:00.242Z,28.20
2018-07-27T19:42:54.637Z,28.10
2018-07-27T19:45:21.823Z,28.10
2018-07-27T19:47:48.989Z,28.10
2018-07-27T19:50:16.225Z,28.10
2018-07-27T19:52:43.415Z,28.00
2018-07-27T19:55:10.660Z,28.00
2018-07-27T19:57:37.832Z,28.00
2018-07-27T20:00:05.884Z,28.00
2018-07-27T20:02:33.049Z,28.10
2018-07-27T20:05:00.232Z,28.10
2018-07-27T20:07:27.409Z,28.10
2018-07-27T20:09:54.608Z,28.20
2018-07-27T20:12:22.056Z,28.20
2018-07-27T20:14:49.227Z,28.20
2018-07-27T20:19:43.572Z,28.20
2018-07-27T20:22:10.784Z,28.30
2018-07-27T20:24:37.940Z,28.40
2018-07-27T20:27:05.125Z,28.40
2018-07-27T20:29:32.297Z,28.40
2018-07-27T20:31:59.505Z,28.40
2018-07-27T20:34:26.673Z,28.40
2018-07-27T20:36:53.856Z,28.50
2018-07-27T20:39:21.047Z,28.50
2018-07-27T20:41:48.218Z,28.50
2018-07-27T20:44:15.448Z,28.60
2018-07-27T20:46:42.627Z,28.50
2018-07-27T20:49:09.807Z,28.60
2018-07-27T20:51:37.053Z,28.60
2018-07-27T20:54:04.516Z,28.50
2018-07-27T20:56:31.729Z,28.30
2018-07-27T20:58:58.885Z,28.20
2018-07-27T21:01:26.109Z,28.10
2018-07-27T21:03:53.347Z,27.90
2018-07-27T21:06:20.483Z,27.90
2018-07-27T21:08:47.632Z,27.80
2018-07-27T21:11:14.841Z,27.70
2018-07-27T21:13:42.006Z,27.70
2018-07-27T21:16:09.509Z,27.70
2018-07-27T21:18:36.761Z,27.50
2018-07-27T21:21:03.934Z,27.40
2018-07-27T21:23:31.121Z,27.20
2018-07-27T21:25:58.289Z,27.10
2018-07-27T21:28:25.439Z,27.10
2018-07-27T21:30:52.737Z,27.10
2018-07-27T21:35:47.096Z,27.10
2018-07-27T21:38:14.257Z,27.00
2018-07-27T21:40:41.432Z,27.20
2018-07-27T21:43:08.596Z,27.10
2018-07-27T21:45:35.819Z,27.00
2018-07-27T21:48:02.978Z,27.10
2018-07-27T21:50:30.199Z,27.00
2018-07-27T21:55:31.884Z,26.90
2018-07-27T21:57:59.089Z,26.90
2018-07-27T22:00:26.313Z,27.00
2018-07-27T22:05:20.667Z,26.90
2018-07-27T22:07:52.441Z,26.70
2018-07-27T22:10:19.646Z,26.60
2018-07-27T22:12:46.834Z,26.60
2018-07-27T22:15:19.758Z,26.40
2018-07-27T22:20:14.509Z,26.30
2018-07-27T22:22:42.324Z,26.20
2018-07-27T22:25:09.488Z,26.10
2018-07-27T22:27:36.678Z,26.10
2018-07-27T22:30:05.872Z,26.10
2018-07-27T22:32:33.054Z,26.20
2018-07-27T22:35:00.217Z,26.20
2018-07-27T22:37:27.433Z,26.10
2018-07-27T22:39:54.592Z,26.10
2018-07-27T22:42:21.783Z,26.00
2018-07-27T22:44:48.960Z,25.80
2018-07-27T22:47:16.128Z,25.70
2018-07-27T22:49:43.300Z,25.70
2018-07-27T22:52:10.454Z,25.60
2018-07-27T22:54:37.652Z,25.60
2018-07-27T22:59:32.645Z,25.60
2018-07-27T23:01:59.874Z,25.60
2018-07-27T23:04:27.037Z,25.60
2018-07-27T23:06:54.199Z,25.60
2018-07-27T23:09:21.417Z,25.60
2018-07-27T23:11:48.589Z,25.50
2018-07-27T23:14:15.779Z,25.50
2018-07-27T23:16:43.033Z,25.40
2018-07-27T23:19:10.233Z,25.30
2018-07-27T23:21:37.417Z,25.30
2018-07-27T23:26:32.053Z,25.30
2018-07-27T23:28:59.213Z,25.40
2018-07-27T23:31:26.393Z,25.40
2018-07-27T23:33:53.606Z,25.30
2018-07-27T23:36:20.767Z,25.20
2018-07-27T23:38:47.944Z,25.20
2018-07-27T23:41:15.161Z,25.20
2018-07-27T23:43:42.441Z,25.00
2018-07-27T23:46:09.635Z,25.00
2018-07-27T23:48:36.806Z,25.00
2018-07-27T23:51:04.040Z,24.90
2018-07-27T23:53:31.229Z,24.80
2018-07-27T23:55:58.396Z,24.80
2018-07-27T23:58:25.588Z,24.80
